createdAt,value
2024-05-09T00:03:34.146Z,100.00
2024-05-09T00:08:36.017Z,100.00
2024-05-09T00:13:37.940Z,100.00
2024-05-09T00:18:39.821Z,100.00
2024-05-09T00:23:41.706Z,100.00
2024-05-09T00:28:43.560Z,100.00
2024-05-09T00:33:45.528Z,100.00
2024-05-09T00:38:47.713Z,100.00
2024-05-09T00:43:49.542Z,100.00
2024-05-09T00:48:51.521Z,100.00
2024-05-09T00:53:53.466Z,100.00
2024-05-09T00:58:55.677Z,100.00
2024-05-09T01:03:58.155Z,100.00
2024-05-09T01:09:00.227Z,100.00
2024-05-09T01:14:02.228Z,100.00
2024-05-09T01:19:04.736Z,100.00
2024-05-09T01:24:06.762Z,100.00
2024-05-09T01:29:08.598Z,100.00
2024-05-09T01:34:10.444Z,100.00
2024-05-09T01:39:12.267Z,100.00
2024-05-09T01:44:14.092Z,100.00
2024-05-09T01:49:16.088Z,100.00
2024-05-09T01:54:17.952Z,100.00
2024-05-09T01:59:20.130Z,100.00
2024-05-09T02:04:22.185Z,100.00
2024-05-09T02:09:24.169Z,100.00
2024-05-09T02:14:26.026Z,100.00
2024-05-09T02:19:28.064Z,100.00
2024-05-09T02:24:29.943Z,100.00
2024-05-09T02:29:31.810Z,100.00
2024-05-09T02:34:33.651Z,100.00
2024-05-09T02:39:35.466Z,100.00
2024-05-09T02:44:37.320Z,100.00
2024-05-09T02:49:39.201Z,100.00
2024-05-09T02:54:41.077Z,100.00
2024-05-09T02:59:43.572Z,100.00
2024-05-09T03:04:45.588Z,100.00
2024-05-09T03:09:47.711Z,100.00
2024-05-09T03:14:50.569Z,100.00
2024-05-09T03:19:52.477Z,100.00
2024-05-09T03:24:54.457Z,100.00
2024-05-09T03:29:56.227Z,100.00
2024-05-09T03:34:58.041Z,100.00
2024-05-09T03:39:59.903Z,100.00
2024-05-09T03:45:02.386Z,100.00
2024-05-09T03:50:05.832Z,100.00
2024-05-09T03:55:09.585Z,100.00
2024-05-09T04:00:18.194Z,100.00
2024-05-09T04:05:29.993Z,100.00
2024-05-09T04:10:34.194Z,100.00
2024-05-09T04:15:36.917Z,100.00
2024-05-09T04:20:40.787Z,100.00
2024-05-09T04:25:45.467Z,100.00
2024-05-09T04:30:47.713Z,98.78
2024-05-09T04:35:49.681Z,96.92
2024-05-09T04:40:51.542Z,93.85
2024-05-09T04:45:53.791Z,89.06
2024-05-09T04:50:55.608Z,93.18
2024-05-09T04:55:57.483Z,97.36
2024-05-09T05:00:59.427Z,96.00
2024-05-09T05:06:01.429Z,94.70
2024-05-09T05:11:03.541Z,95.92
2024-05-09T05:16:05.577Z,96.93
2024-05-09T05:21:07.355Z,91.29
2024-05-09T05:26:09.225Z,89.94
2024-05-09T05:31:11.134Z,84.20
2024-05-09T05:36:12.981Z,81.32
2024-05-09T05:41:14.860Z,82.81
2024-05-09T05:46:16.715Z,77.32
2024-05-09T05:51:18.691Z,74.53
2024-05-09T05:56:20.629Z,73.99
2024-05-09T06:01:22.951Z,70.85
2024-05-09T06:06:24.755Z,71.14
2024-05-09T06:11:26.587Z,69.50
2024-05-09T06:16:28.392Z,60.67
2024-05-09T06:21:30.241Z,62.77
2024-05-09T06:26:32.721Z,55.51
2024-05-09T06:31:44.484Z,59.83
2024-05-09T06:36:46.311Z,60.83
2024-05-09T06:41:48.104Z,58.56
2024-05-09T06:46:50.017Z,57.87
2024-05-09T06:51:51.835Z,60.25
2024-05-09T06:56:53.593Z,59.96
2024-05-09T07:01:55.381Z,52.43
2024-05-09T07:06:57.654Z,55.08
2024-05-09T07:11:59.566Z,57.51
2024-05-09T07:17:01.519Z,52.85
2024-05-09T07:22:03.669Z,50.26
2024-05-09T07:27:05.503Z,42.48
2024-05-09T07:32:09.113Z,43.72
2024-05-09T07:37:13.292Z,40.22
2024-05-09T07:42:15.099Z,40.39
2024-05-09T07:48:28.954Z,45.24
2024-05-09T07:53:33.934Z,38.26
2024-05-09T07:58:00.812Z,35.39
2024-05-09T08:03:02.655Z,32.16
2024-05-09T08:08:04.707Z,33.47
2024-05-09T08:13:06.566Z,35.52
2024-05-09T08:18:09.894Z,35.96
2024-05-09T08:23:11.831Z,36.33
2024-05-09T08:28:16.547Z,32.67
2024-05-09T08:33:18.617Z,34.50
2024-05-09T08:38:20.468Z,34.33
2024-05-09T08:43:24.523Z,37.50
2024-05-09T08:48:26.626Z,35.94
2024-05-09T08:53:28.696Z,35.76
2024-05-09T08:58:31.805Z,39.97
2024-05-09T09:03:36.842Z,40.71
2024-05-09T09:08:39.660Z,39.11
2024-05-09T09:13:41.506Z,39.03
2024-05-09T09:18:47.003Z,39.25
2024-05-09T09:23:48.962Z,39.77
2024-05-09T09:28:50.889Z,40.45
2024-05-09T09:33:53.750Z,42.59
2024-05-09T09:38:56.719Z,35.42
2024-05-09T09:43:59.553Z,34.18
2024-05-09T09:49:01.504Z,38.69
2024-05-09T09:54:05.982Z,43.15
2024-05-09T09:59:09.670Z,40.12
2024-05-09T10:04:16.015Z,34.34
2024-05-09T10:09:18.417Z,35.88
2024-05-09T10:14:21.121Z,38.82
2024-05-09T10:19:25.603Z,37.86
2024-05-09T10:24:27.503Z,39.16
2024-05-09T10:29:29.285Z,39.84
2024-05-09T10:34:34.754Z,38.21
2024-05-09T10:39:39.228Z,37.00
2024-05-09T10:44:42.577Z,38.10
2024-05-09T10:49:44.498Z,39.69
2024-05-09T10:54:52.192Z,40.05
2024-05-09T10:59:54.002Z,35.63
2024-05-09T11:04:55.955Z,38.51
2024-05-09T11:09:58.386Z,38.71
2024-05-09T11:15:00.218Z,36.42
2024-05-09T11:20:06.100Z,40.62
2024-05-09T11:25:12.221Z,37.80
2024-05-09T11:30:26.870Z,37.11
2024-05-09T11:35:34.487Z,35.92
2024-05-09T11:40:38.306Z,37.48
2024-05-09T11:45:40.252Z,36.56
2024-05-09T11:50:42.341Z,38.35
2024-05-09T11:55:44.226Z,41.04
2024-05-09T12:00:47.377Z,37.71
2024-05-09T12:05:49.492Z,38.48
2024-05-09T12:10:51.620Z,38.91
2024-05-09T12:15:54.249Z,37.80
2024-05-09T12:20:56.103Z,36.17
2024-05-09T12:25:57.972Z,37.36
2024-05-09T12:30:59.774Z,38.18
2024-05-09T12:36:01.620Z,38.73
2024-05-09T12:41:03.491Z,37.87
2024-05-09T12:46:05.417Z,39.35
2024-05-09T12:51:07.192Z,41.17
2024-05-09T12:56:09.559Z,41.70
2024-05-09T13:01:11.515Z,41.86
2024-05-09T13:06:13.484Z,40.74
2024-05-09T13:11:15.420Z,40.49
2024-05-09T13:16:17.426Z,39.43
2024-05-09T13:21:19.280Z,41.53
2024-05-09T13:26:21.123Z,42.51
2024-05-09T13:31:23.037Z,43.37
2024-05-09T13:36:24.974Z,44.23
2024-05-09T13:41:26.970Z,43.86
2024-05-09T13:46:28.924Z,43.63
2024-05-09T13:51:30.826Z,45.28
2024-05-09T13:56:32.689Z,46.38
2024-05-09T14:01:34.640Z,46.60
2024-05-09T14:06:36.984Z,45.66
2024-05-09T14:11:38.922Z,47.29
2024-05-09T14:16:42.005Z,46.12
2024-05-09T14:21:43.991Z,44.47
2024-05-09T14:26:45.896Z,45.28
2024-05-09T14:31:47.764Z,46.88
2024-05-09T14:36:49.677Z,46.89
2024-05-09T14:41:51.496Z,45.20
2024-05-09T14:46:53.320Z,46.21
2024-05-09T14:51:55.167Z,46.23
2024-05-09T14:56:58.049Z,45.84
2024-05-09T15:02:00.080Z,45.03
2024-05-09T15:07:02.122Z,46.32
2024-05-09T15:12:04.307Z,45.18
2024-05-09T15:17:06.214Z,46.16
2024-05-09T15:22:11.711Z,45.10
2024-05-09T15:27:13.933Z,46.29
2024-05-09T15:32:15.864Z,46.54
2024-05-09T15:37:18.018Z,44.89
2024-05-09T15:42:20.054Z,44.91
2024-05-09T15:47:22.152Z,46.66
2024-05-09T15:52:23.971Z,47.68
2024-05-09T15:57:25.831Z,46.69
2024-05-09T16:02:27.657Z,47.58
2024-05-09T16:07:29.571Z,47.67
2024-05-09T16:12:31.354Z,47.33
2024-05-09T16:17:33.306Z,47.36
2024-05-09T16:22:35.340Z,47.19
2024-05-09T16:27:38.179Z,48.60
2024-05-09T16:32:41.650Z,47.15
2024-05-09T16:37:43.758Z,48.78
2024-05-09T16:42:46.123Z,48.80
2024-05-09T16:47:48.116Z,49.02
2024-05-09T16:52:49.970Z,49.28
2024-05-09T16:57:52.237Z,49.36
2024-05-09T17:02:54.613Z,50.12
2024-05-09T17:07:56.862Z,49.53
2024-05-09T17:12:58.742Z,49.93
2024-05-09T17:18:01.620Z,50.36
2024-05-09T17:23:06.092Z,51.72
2024-05-09T17:28:09.609Z,51.26
2024-05-09T17:33:12.729Z,52.38
2024-05-09T17:38:15.121Z,51.82
2024-05-09T17:43:16.953Z,51.98
2024-05-09T17:48:19.328Z,52.17
2024-05-09T17:53:21.609Z,52.90
2024-05-09T17:58:23.529Z,55.58
2024-05-09T18:03:25.668Z,56.88
2024-05-09T18:08:27.584Z,58.60
2024-05-09T18:13:29.394Z,60.67
2024-05-09T18:18:31.399Z,63.79
2024-05-09T18:23:34.886Z,64.18
2024-05-09T18:28:36.696Z,64.41
2024-05-09T18:33:38.635Z,64.49
2024-05-09T18:38:40.542Z,65.94
2024-05-09T18:43:45.372Z,69.61
2024-05-09T18:48:50.483Z,69.53
2024-05-09T18:53:54.963Z,71.67
2024-05-09T18:58:56.754Z,71.59
2024-05-09T19:03:58.669Z,72.89
2024-05-09T19:09:00.515Z,73.89
2024-05-09T19:14:04.567Z,74.60
2024-05-09T19:19:06.586Z,75.00
2024-05-09T19:24:08.578Z,77.48
2024-05-09T19:29:10.384Z,79.39
2024-05-09T19:34:12.240Z,80.01
2024-05-09T19:39:14.196Z,81.23
2024-05-09T19:44:16.070Z,81.31
2024-05-09T19:49:17.935Z,82.54
2024-05-09T19:54:20.300Z,82.57
2024-05-09T19:59:22.097Z,84.02
2024-05-09T20:04:24.310Z,82.91
2024-05-09T20:09:26.210Z,83.00
2024-05-09T20:14:27.973Z,85.34
2024-05-09T20:19:29.882Z,84.33
2024-05-09T20:24:31.926Z,83.66
2024-05-09T20:29:33.737Z,85.46
2024-05-09T20:34:35.561Z,86.48
2024-05-09T20:39:37.396Z,85.94
2024-05-09T20:44:39.176Z,87.06
2024-05-09T20:49:40.997Z,89.67
2024-05-09T20:54:42.897Z,88.50
2024-05-09T20:59:44.690Z,88.52
2024-05-09T21:04:46.706Z,89.78
2024-05-09T21:09:48.584Z,91.75
2024-05-09T21:14:50.374Z,93.18
2024-05-09T21:19:52.310Z,93.72
2024-05-09T21:24:54.137Z,92.00
2024-05-09T21:29:55.980Z,93.40
2024-05-09T21:34:57.780Z,93.87
2024-05-09T21:40:01.093Z,94.05
2024-05-09T21:45:02.955Z,95.11
2024-05-09T21:50:07.667Z,94.67
2024-05-09T21:55:09.733Z,95.48
2024-05-09T22:00:28.019Z,96.48
2024-05-09T22:05:37.647Z,98.10
2024-05-09T22:10:39.628Z,98.76
2024-05-09T22:15:41.810Z,99.00
2024-05-09T22:20:45.620Z,99.64
2024-05-09T22:25:48.337Z,100.00
2024-05-09T22:30:50.744Z,99.27
2024-05-09T22:35:52.541Z,100.00
2024-05-09T22:40:54.413Z,100.00
2024-05-09T22:45:56.326Z,100.00
2024-05-09T22:50:58.155Z,100.00
2024-05-09T22:55:59.920Z,100.00
2024-05-09T23:01:01.858Z,100.00
2024-05-09T23:06:06.443Z,100.00
2024-05-09T23:11:08.326Z,100.00
2024-05-09T23:16:10.314Z,100.00
2024-05-09T23:21:12.167Z,100.00
2024-05-09T23:26:14.036Z,100.00
2024-05-09T23:31:15.842Z,100.00
2024-05-09T23:36:17.634Z,100.00
2024-05-09T23:41:19.411Z,100.00
2024-05-09T23:46:21.428Z,100.00
2024-05-09T23:51:23.258Z,100.00
2024-05-09T23:56:25.059Z,100.00
